sensor_id;sensor_type;location;lat;lon;timestamp;pressure;altitude;pressure_sealevel;temperature;humidity
42761;BME280;31672;47.638;19.026;2023-04-23T00:03:47;99923.94;;;8.40;67.55
42761;BME280;31672;47.638;19.026;2023-04-23T00:08:56;99938.59;;;8.34;67.93
42761;BME280;31672;47.638;19.026;2023-04-23T00:14:01;99924.66;;;8.24;68.44
42761;BME280;31672;47.638;19.026;2023-04-23T00:19:04;99916.47;;;8.09;69.66
42761;BME280;31672;47.638;19.026;2023-04-23T00:24:07;99923.22;;;8.03;69.76
42761;BME280;31672;47.638;19.026;2023-04-23T00:29:10;99918.09;;;8.02;69.56
42761;BME280;31672;47.638;19.026;2023-04-23T00:34:13;99919.72;;;7.95;69.71
42761;BME280;31672;47.638;19.026;2023-04-23T00:39:17;99916.06;;;7.88;70.06
42761;BME280;31672;47.638;19.026;2023-04-23T00:44:20;99915.69;;;7.83;70.49
42761;BME280;31672;47.638;19.026;2023-04-23T00:49:24;99911.69;;;7.78;70.72
42761;BME280;31672;47.638;19.026;2023-04-23T00:54:28;99913.31;;;7.71;70.63
42761;BME280;31672;47.638;19.026;2023-04-23T00:59:31;99909.63;;;7.64;71.44
42761;BME280;31672;47.638;19.026;2023-04-23T01:04:35;99913.09;;;7.65;71.35
42761;BME280;31672;47.638;19.026;2023-04-23T01:09:39;99903.97;;;7.59;71.68
42761;BME280;31672;47.638;19.026;2023-04-23T01:14:43;99904.44;;;7.55;71.66
42761;BME280;31672;47.638;19.026;2023-04-23T01:19:47;99910.72;;;7.54;71.61
42761;BME280;31672;47.638;19.026;2023-04-23T01:24:52;99911.25;;;7.57;71.53
42761;BME280;31672;47.638;19.026;2023-04-23T01:29:56;99903.94;;;7.51;71.85
42761;BME280;31672;47.638;19.026;2023-04-23T01:35:01;99903.94;;;7.51;71.94
42761;BME280;31672;47.638;19.026;2023-04-23T01:40:07;99899.94;;;7.47;71.47
42761;BME280;31672;47.638;19.026;2023-04-23T01:45:23;99888.81;;;7.43;71.83
42761;BME280;31672;47.638;19.026;2023-04-23T01:50:45;99894.97;;;7.44;71.19
42761;BME280;31672;47.638;19.026;2023-04-23T01:55:49;99898.72;;;7.41;71.45
42761;BME280;31672;47.638;19.026;2023-04-23T02:00:54;99892.94;;;7.38;71.81
42761;BME280;31672;47.638;19.026;2023-04-23T02:05:58;99886.97;;;7.36;72.75
42761;BME280;31672;47.638;19.026;2023-04-23T02:11:02;99893.41;;;7.33;72.92
42761;BME280;31672;47.638;19.026;2023-04-23T02:16:05;99881.09;;;7.24;72.69
42761;BME280;31672;47.638;19.026;2023-04-23T02:21:08;99885.88;;;7.20;73.43
42761;BME280;31672;47.638;19.026;2023-04-23T02:26:11;99886.16;;;7.17;74.17
42761;BME280;31672;47.638;19.026;2023-04-23T02:31:15;99883.69;;;7.16;73.81
42761;BME280;31672;47.638;19.026;2023-04-23T02:36:20;99883.63;;;7.08;73.86
42761;BME280;31672;47.638;19.026;2023-04-23T02:41:23;99878.63;;;7.05;74.14
42761;BME280;31672;47.638;19.026;2023-04-23T02:46:26;99872.47;;;6.96;74.12
42761;BME280;31672;47.638;19.026;2023-04-23T02:51:29;99864.91;;;6.83;74.46
42761;BME280;31672;47.638;19.026;2023-04-23T02:56:32;99879.25;;;6.81;74.66
42761;BME280;31672;47.638;19.026;2023-04-23T03:01:36;99863.66;;;6.69;74.35
42761;BME280;31672;47.638;19.026;2023-04-23T03:06:39;99870.34;;;6.64;74.68
42761;BME280;31672;47.638;19.026;2023-04-23T03:11:42;99865.06;;;6.64;75.03
42761;BME280;31672;47.638;19.026;2023-04-23T03:16:45;99873.44;;;6.59;75.34
42761;BME280;31672;47.638;19.026;2023-04-23T03:21:48;99868.75;;;6.53;76.18
42761;BME280;31672;47.638;19.026;2023-04-23T03:26:51;99873.69;;;6.48;76.31
42761;BME280;31672;47.638;19.026;2023-04-23T03:31:54;99879.25;;;6.45;76.94
42761;BME280;31672;47.638;19.026;2023-04-23T03:36:59;99874.31;;;6.32;77.05
42761;BME280;31672;47.638;19.026;2023-04-23T03:42:03;99880.75;;;6.30;76.83
42761;BME280;31672;47.638;19.026;2023-04-23T03:47:07;99882.00;;;6.26;77.37
42761;BME280;31672;47.638;19.026;2023-04-23T03:52:17;99881.47;;;6.22;77.36
42761;BME280;31672;47.638;19.026;2023-04-23T03:57:27;99872.03;;;6.20;77.26
42761;BME280;31672;47.638;19.026;2023-04-23T04:02:37;99873.03;;;6.19;77.31
42761;BME280;31672;47.638;19.026;2023-04-23T04:07:41;99892.84;;;6.23;77.71
42761;BME280;31672;47.638;19.026;2023-04-23T04:12:44;99886.16;;;6.28;78.22
42761;BME280;31672;47.638;19.026;2023-04-23T04:17:49;99886.94;;;6.38;78.26
42761;BME280;31672;47.638;19.026;2023-04-23T04:22:52;99888.38;;;6.51;78.56
42761;BME280;31672;47.638;19.026;2023-04-23T04:27:55;99897.47;;;6.66;78.74
42761;BME280;31672;47.638;19.026;2023-04-23T04:32:59;99896.59;;;6.83;78.75
42761;BME280;31672;47.638;19.026;2023-04-23T04:38:03;99904.53;;;7.01;78.52
42761;BME280;31672;47.638;19.026;2023-04-23T04:43:06;99902.03;;;7.17;78.16
42761;BME280;31672;47.638;19.026;2023-04-23T04:48:09;99917.84;;;7.35;78.04
42761;BME280;31672;47.638;19.026;2023-04-23T04:53:12;99926.41;;;7.55;77.47
42761;BME280;31672;47.638;19.026;2023-04-23T04:58:15;99918.94;;;7.68;76.60
42761;BME280;31672;47.638;19.026;2023-04-23T05:03:18;99922.63;;;7.84;76.26
42761;BME280;31672;47.638;19.026;2023-04-23T05:08:22;99915.41;;;7.94;75.46
42761;BME280;31672;47.638;19.026;2023-04-23T05:13:25;99935.00;;;8.09;75.35
42761;BME280;31672;47.638;19.026;2023-04-23T05:18:28;99926.47;;;8.23;74.91
42761;BME280;31672;47.638;19.026;2023-04-23T05:23:33;99926.41;;;8.41;74.01
42761;BME280;31672;47.638;19.026;2023-04-23T05:28:36;99919.34;;;8.58;73.22
42761;BME280;31672;47.638;19.026;2023-04-23T05:33:39;99918.38;;;8.75;71.91
42761;BME280;31672;47.638;19.026;2023-04-23T05:38:52;99921.72;;;8.94;71.21
42761;BME280;31672;47.638;19.026;2023-04-23T05:43:55;99917.41;;;9.17;71.26
42761;BME280;31672;47.638;19.026;2023-04-23T05:48:58;99924.53;;;9.49;70.83
42761;BME280;31672;47.638;19.026;2023-04-23T05:54:01;99916.69;;;9.80;68.95
42761;BME280;31672;47.638;19.026;2023-04-23T05:59:04;99910.63;;;10.11;67.20
42761;BME280;31672;47.638;19.026;2023-04-23T06:04:07;99921.47;;;10.40;66.48
42761;BME280;31672;47.638;19.026;2023-04-23T06:09:11;99921.44;;;10.80;64.35
42761;BME280;31672;47.638;19.026;2023-04-23T06:14:14;99917.53;;;11.13;61.72
42761;BME280;31672;47.638;19.026;2023-04-23T06:19:17;99919.09;;;11.45;61.42
42761;BME280;31672;47.638;19.026;2023-04-23T06:24:20;99917.44;;;11.82;60.57
42761;BME280;31672;47.638;19.026;2023-04-23T06:29:23;99923.41;;;12.14;58.99
42761;BME280;31672;47.638;19.026;2023-04-23T06:34:26;99922.09;;;12.39;57.69
42761;BME280;31672;47.638;19.026;2023-04-23T06:39:29;99926.66;;;12.60;55.87
42761;BME280;31672;47.638;19.026;2023-04-23T06:44:32;99919.97;;;12.85;55.75
42761;BME280;31672;47.638;19.026;2023-04-23T06:49:36;99922.47;;;13.08;54.70
42761;BME280;31672;47.638;19.026;2023-04-23T06:54:39;99919.94;;;13.22;54.45
42761;BME280;31672;47.638;19.026;2023-04-23T06:59:43;99923.84;;;13.47;54.45
42761;BME280;31672;47.638;19.026;2023-04-23T07:04:46;99926.53;;;13.75;53.20
42761;BME280;31672;47.638;19.026;2023-04-23T07:09:49;99921.34;;;14.02;52.14
42761;BME280;31672;47.638;19.026;2023-04-23T07:14:52;99916.56;;;14.32;52.71
42761;BME280;31672;47.638;19.026;2023-04-23T07:19:56;99913.53;;;15.22;50.81
42761;BME280;31672;47.638;19.026;2023-04-23T07:24:59;99902.84;;;15.49;48.16
42761;BME280;31672;47.638;19.026;2023-04-23T07:30:03;99895.56;;;15.89;49.97
42761;BME280;31672;47.638;19.026;2023-04-23T07:35:07;99897.19;;;16.55;47.04
42761;BME280;31672;47.638;19.026;2023-04-23T07:40:12;99889.59;;;16.90;45.93
42761;BME280;31672;47.638;19.026;2023-04-23T07:45:16;99892.09;;;17.42;44.21
42761;BME280;31672;47.638;19.026;2023-04-23T07:50:19;99890.41;;;17.72;42.53
42761;BME280;31672;47.638;19.026;2023-04-23T07:55:22;99884.06;;;17.85;43.04
42761;BME280;31672;47.638;19.026;2023-04-23T08:00:25;99889.53;;;17.78;42.22
42761;BME280;31672;47.638;19.026;2023-04-23T08:05:28;99886.47;;;17.68;41.83
42761;BME280;31672;47.638;19.026;2023-04-23T08:10:32;99882.94;;;17.74;43.22
42761;BME280;31672;47.638;19.026;2023-04-23T08:15:35;99878.94;;;17.83;41.98
42761;BME280;31672;47.638;19.026;2023-04-23T08:20:38;99879.16;;;18.00;42.66
42761;BME280;31672;47.638;19.026;2023-04-23T08:25:41;99869.81;;;18.21;41.66
42761;BME280;31672;47.638;19.026;2023-04-23T08:30:45;99868.38;;;18.37;42.20
42761;BME280;31672;47.638;19.026;2023-04-23T08:35:48;99855.44;;;18.76;40.75
42761;BME280;31672;47.638;19.026;2023-04-23T08:40:56;99851.31;;;19.15;37.92
42761;BME280;31672;47.638;19.026;2023-04-23T08:46:02;99841.50;;;19.56;36.70
42761;BME280;31672;47.638;19.026;2023-04-23T08:51:09;99843.72;;;19.82;35.90
42761;BME280;31672;47.638;19.026;2023-04-23T08:56:14;99832.91;;;20.05;33.70
42761;BME280;31672;47.638;19.026;2023-04-23T09:01:18;99831.84;;;21.26;34.26
42761;BME280;31672;47.638;19.026;2023-04-23T09:06:21;99826.13;;;22.70;31.19
42761;BME280;31672;47.638;19.026;2023-04-23T09:11:26;99814.47;;;23.76;29.74
42761;BME280;31672;47.638;19.026;2023-04-23T09:16:30;99811.72;;;24.34;27.00
42761;BME280;31672;47.638;19.026;2023-04-23T09:21:34;99814.06;;;24.05;26.97
42761;BME280;31672;47.638;19.026;2023-04-23T09:26:44;99810.09;;;23.65;26.64
42761;BME280;31672;47.638;19.026;2023-04-23T09:31:52;99801.78;;;23.40;27.38
42761;BME280;31672;47.638;19.026;2023-04-23T09:36:56;99803.47;;;23.51;27.05
42761;BME280;31672;47.638;19.026;2023-04-23T09:42:04;99802.34;;;23.47;27.01
42761;BME280;31672;47.638;19.026;2023-04-23T09:47:08;99798.44;;;23.28;27.34
42761;BME280;31672;47.638;19.026;2023-04-23T09:52:17;99801.13;;;23.65;27.32
42761;BME280;31672;47.638;19.026;2023-04-23T09:57:24;99787.59;;;24.43;25.56
42761;BME280;31672;47.638;19.026;2023-04-23T10:02:27;99778.38;;;24.85;25.30
42761;BME280;31672;47.638;19.026;2023-04-23T10:07:31;99778.09;;;24.50;24.02
42761;BME280;31672;47.638;19.026;2023-04-23T10:12:35;99773.34;;;24.00;24.92
42761;BME280;31672;47.638;19.026;2023-04-23T10:17:56;99762.34;;;23.64;25.90
42761;BME280;31672;47.638;19.026;2023-04-23T10:23:01;99759.94;;;23.31;26.58
42761;BME280;31672;47.638;19.026;2023-04-23T10:28:05;99761.81;;;23.25;25.59
42761;BME280;31672;47.638;19.026;2023-04-23T10:33:11;99754.47;;;23.15;26.23
42761;BME280;31672;47.638;19.026;2023-04-23T10:38:31;99748.41;;;23.08;25.83
42761;BME280;31672;47.638;19.026;2023-04-23T10:43:34;99745.34;;;23.37;26.12
42761;BME280;31672;47.638;19.026;2023-04-23T10:49:15;99735.25;;;23.69;26.26
42761;BME280;31672;47.638;19.026;2023-04-23T10:54:18;99736.13;;;23.95;24.93
42761;BME280;31672;47.638;19.026;2023-04-23T10:59:21;99730.81;;;23.58;24.39
42761;BME280;31672;47.638;19.026;2023-04-23T11:04:27;99728.09;;;23.53;23.36
42761;BME280;31672;47.638;19.026;2023-04-23T11:09:46;99729.53;;;23.71;23.12
42761;BME280;31672;47.638;19.026;2023-04-23T11:14:51;99730.34;;;23.66;23.73
42761;BME280;31672;47.638;19.026;2023-04-23T11:20:12;99725.00;;;23.97;23.39
42761;BME280;31672;47.638;19.026;2023-04-23T11:25:24;99722.38;;;24.33;22.60
42761;BME280;31672;47.638;19.026;2023-04-23T11:30:29;99715.03;;;24.18;22.47
42761;BME280;31672;47.638;19.026;2023-04-23T11:35:34;99716.63;;;24.14;23.40
42761;BME280;31672;47.638;19.026;2023-04-23T11:40:45;99716.94;;;24.33;23.04
42761;BME280;31672;47.638;19.026;2023-04-23T11:45:50;99711.00;;;24.66;23.11
42761;BME280;31672;47.638;19.026;2023-04-23T11:50:53;99705.53;;;25.12;22.42
42761;BME280;31672;47.638;19.026;2023-04-23T11:55:56;99691.19;;;25.66;21.09
42761;BME280;31672;47.638;19.026;2023-04-23T12:01:00;99691.31;;;26.00;21.13
42761;BME280;31672;47.638;19.026;2023-04-23T12:06:04;99685.09;;;26.34;20.12
42761;BME280;31672;47.638;19.026;2023-04-23T12:11:07;99670.59;;;26.73;21.00
42761;BME280;31672;47.638;19.026;2023-04-23T12:16:10;99673.75;;;27.38;20.52
42761;BME280;31672;47.638;19.026;2023-04-23T12:21:14;99660.91;;;27.38;19.03
42761;BME280;31672;47.638;19.026;2023-04-23T12:26:19;99659.53;;;27.41;19.10
42761;BME280;31672;47.638;19.026;2023-04-23T12:31:26;99664.91;;;27.22;20.03
42761;BME280;31672;47.638;19.026;2023-04-23T12:36:35;99649.06;;;27.67;19.73
42761;BME280;31672;47.638;19.026;2023-04-23T12:41:38;99631.59;;;27.68;19.58
42761;BME280;31672;47.638;19.026;2023-04-23T12:46:41;99640.78;;;27.77;18.91
42761;BME280;31672;47.638;19.026;2023-04-23T12:51:44;99639.78;;;27.68;19.26
42761;BME280;31672;47.638;19.026;2023-04-23T12:56:48;99627.88;;;27.59;19.50
42761;BME280;31672;47.638;19.026;2023-04-23T13:01:51;99634.84;;;27.70;20.38
42761;BME280;31672;47.638;19.026;2023-04-23T13:06:54;99619.97;;;27.81;19.31
42761;BME280;31672;47.638;19.026;2023-04-23T13:11:57;99615.59;;;27.61;18.57
42761;BME280;31672;47.638;19.026;2023-04-23T13:17:02;99612.88;;;27.80;19.58
42761;BME280;31672;47.638;19.026;2023-04-23T13:22:05;99604.13;;;27.83;19.27
42761;BME280;31672;47.638;19.026;2023-04-23T13:27:09;99604.34;;;28.19;19.46
42761;BME280;31672;47.638;19.026;2023-04-23T13:32:12;99584.50;;;28.14;19.55
42761;BME280;31672;47.638;19.026;2023-04-23T13:37:16;99583.38;;;28.15;18.38
42761;BME280;31672;47.638;19.026;2023-04-23T13:42:19;99577.84;;;28.20;18.69
42761;BME280;31672;47.638;19.026;2023-04-23T13:47:22;99571.16;;;28.59;18.45
42761;BME280;31672;47.638;19.026;2023-04-23T13:52:26;99559.22;;;28.68;18.02
42761;BME280;31672;47.638;19.026;2023-04-23T13:57:29;99562.94;;;28.72;18.56
42761;BME280;31672;47.638;19.026;2023-04-23T14:02:32;99558.78;;;27.63;18.71
42761;BME280;31672;47.638;19.026;2023-04-23T14:07:35;99561.50;;;27.44;19.29
42761;BME280;31672;47.638;19.026;2023-04-23T14:12:38;99556.78;;;27.31;19.46
42761;BME280;31672;47.638;19.026;2023-04-23T14:17:41;99553.00;;;27.08;19.07
42761;BME280;31672;47.638;19.026;2023-04-23T14:22:49;99547.53;;;26.02;19.97
42761;BME280;31672;47.638;19.026;2023-04-23T14:27:55;99552.00;;;24.89;21.53
42761;BME280;31672;47.638;19.026;2023-04-23T14:32:58;99549.88;;;24.76;21.63
42761;BME280;31672;47.638;19.026;2023-04-23T14:38:01;99539.47;;;24.93;21.16
42761;BME280;31672;47.638;19.026;2023-04-23T14:43:05;99546.19;;;25.21;22.12
42761;BME280;31672;47.638;19.026;2023-04-23T14:48:17;99522.94;;;25.83;20.23
42761;BME280;31672;47.638;19.026;2023-04-23T14:53:20;99524.56;;;25.84;20.47
42761;BME280;31672;47.638;19.026;2023-04-23T14:58:23;99528.22;;;25.25;20.47
42761;BME280;31672;47.638;19.026;2023-04-23T15:03:26;99532.84;;;24.40;21.59
42761;BME280;31672;47.638;19.026;2023-04-23T15:08:30;99532.34;;;23.92;23.30
42761;BME280;31672;47.638;19.026;2023-04-23T15:19:03;99526.81;;;24.68;22.08
42761;BME280;31672;47.638;19.026;2023-04-23T15:24:08;99521.53;;;24.97;22.01
42761;BME280;31672;47.638;19.026;2023-04-23T15:29:11;99526.19;;;24.92;21.77
42761;BME280;31672;47.638;19.026;2023-04-23T15:34:15;99522.59;;;25.01;21.73
42761;BME280;31672;47.638;19.026;2023-04-23T15:39:18;99510.81;;;25.26;22.04
42761;BME280;31672;47.638;19.026;2023-04-23T15:44:21;99496.09;;;25.32;21.59
42761;BME280;31672;47.638;19.026;2023-04-23T15:49:27;99501.88;;;25.16;21.35
42761;BME280;31672;47.638;19.026;2023-04-23T15:54:30;99501.75;;;24.81;21.65
42761;BME280;31672;47.638;19.026;2023-04-23T15:59:33;99504.34;;;24.27;22.41
42761;BME280;31672;47.638;19.026;2023-04-23T16:04:36;99507.38;;;24.00;22.52
42761;BME280;31672;47.638;19.026;2023-04-23T16:09:39;99498.16;;;23.86;22.92
42761;BME280;31672;47.638;19.026;2023-04-23T16:14:43;99495.97;;;23.67;23.10
42761;BME280;31672;47.638;19.026;2023-04-23T16:19:46;99494.31;;;23.41;23.89
42761;BME280;31672;47.638;19.026;2023-04-23T16:24:49;99498.38;;;23.43;24.29
42761;BME280;31672;47.638;19.026;2023-04-23T16:29:52;99487.22;;;23.24;24.54
42761;BME280;31672;47.638;19.026;2023-04-23T16:34:55;99487.69;;;22.91;24.81
42761;BME280;31672;47.638;19.026;2023-04-23T16:39:59;99486.53;;;22.77;25.09
42761;BME280;31672;47.638;19.026;2023-04-23T16:45:04;99480.50;;;22.64;25.02
42761;BME280;31672;47.638;19.026;2023-04-23T16:50:07;99483.63;;;22.36;25.98
42761;BME280;31672;47.638;19.026;2023-04-23T16:55:11;99479.59;;;22.01;26.56
42761;BME280;31672;47.638;19.026;2023-04-23T17:00:14;99479.28;;;21.60;27.17
42761;BME280;31672;47.638;19.026;2023-04-23T17:05:22;99485.84;;;21.16;28.20
42761;BME280;31672;47.638;19.026;2023-04-23T17:10:28;99479.13;;;20.69;29.25
42761;BME280;31672;47.638;19.026;2023-04-23T17:15:31;99494.84;;;20.34;29.82
42761;BME280;31672;47.638;19.026;2023-04-23T17:20:34;99485.06;;;19.94;32.00
42761;BME280;31672;47.638;19.026;2023-04-23T17:25:37;99490.31;;;19.55;32.05
42761;BME280;31672;47.638;19.026;2023-04-23T17:30:41;99488.31;;;19.17;32.66
42761;BME280;31672;47.638;19.026;2023-04-23T17:35:45;99480.03;;;18.78;33.34
42761;BME280;31672;47.638;19.026;2023-04-23T17:40:54;99485.22;;;18.44;34.46
42761;BME280;31672;47.638;19.026;2023-04-23T17:45:57;99491.44;;;18.10;34.86
42761;BME280;31672;47.638;19.026;2023-04-23T17:51:01;99501.47;;;17.79;35.20
42761;BME280;31672;47.638;19.026;2023-04-23T17:56:04;99496.94;;;17.50;36.11
42761;BME280;31672;47.638;19.026;2023-04-23T18:01:08;99501.53;;;17.19;36.68
42761;BME280;31672;47.638;19.026;2023-04-23T18:06:11;99511.81;;;16.92;37.62
42761;BME280;31672;47.638;19.026;2023-04-23T18:11:14;99521.25;;;16.58;38.43
42761;BME280;31672;47.638;19.026;2023-04-23T18:16:18;99527.91;;;16.30;40.25
42761;BME280;31672;47.638;19.026;2023-04-23T18:21:21;99524.28;;;16.00;40.86
42761;BME280;31672;47.638;19.026;2023-04-23T18:26:25;99535.59;;;15.77;41.08
42761;BME280;31672;47.638;19.026;2023-04-23T18:31:28;99538.22;;;15.52;41.70
42761;BME280;31672;47.638;19.026;2023-04-23T18:36:35;99552.16;;;15.29;42.74
42761;BME280;31672;47.638;19.026;2023-04-23T18:41:39;99553.31;;;15.02;43.98
42761;BME280;31672;47.638;19.026;2023-04-23T18:46:42;99558.56;;;14.77;44.68
42761;BME280;31672;47.638;19.026;2023-04-23T18:51:49;99552.44;;;14.56;44.71
42761;BME280;31672;47.638;19.026;2023-04-23T18:56:53;99559.22;;;14.39;44.81
42761;BME280;31672;47.638;19.026;2023-04-23T19:01:56;99564.56;;;14.26;45.05
42761;BME280;31672;47.638;19.026;2023-04-23T19:06:59;99561.09;;;14.12;45.25
42761;BME280;31672;47.638;19.026;2023-04-23T19:12:03;99557.19;;;14.01;45.54
42761;BME280;31672;47.638;19.026;2023-04-23T19:17:06;99557.81;;;13.90;46.67
42761;BME280;31672;47.638;19.026;2023-04-23T19:22:09;99559.22;;;13.79;46.38
42761;BME280;31672;47.638;19.026;2023-04-23T19:27:12;99561.72;;;13.68;46.72
42761;BME280;31672;47.638;19.026;2023-04-23T19:32:15;99567.00;;;13.54;48.04
42761;BME280;31672;47.638;19.026;2023-04-23T19:37:18;99568.59;;;13.35;48.85
42761;BME280;31672;47.638;19.026;2023-04-23T19:42:21;99569.94;;;13.18;49.19
42761;BME280;31672;47.638;19.026;2023-04-23T19:47:24;99559.44;;;13.03;49.75
42761;BME280;31672;47.638;19.026;2023-04-23T19:52:28;99561.84;;;12.92;50.08
42761;BME280;31672;47.638;19.026;2023-04-23T19:57:31;99553.97;;;12.77;50.23
42761;BME280;31672;47.638;19.026;2023-04-23T20:02:34;99557.22;;;12.66;50.78
42761;BME280;31672;47.638;19.026;2023-04-23T20:07:38;99554.28;;;12.54;51.70
42761;BME280;31672;47.638;19.026;2023-04-23T20:12:41;99560.31;;;12.41;51.85
42761;BME280;31672;47.638;19.026;2023-04-23T20:17:44;99558.22;;;12.30;52.34
42761;BME280;31672;47.638;19.026;2023-04-23T20:22:47;99553.59;;;12.17;53.77
42761;BME280;31672;47.638;19.026;2023-04-23T20:27:50;99554.53;;;12.03;54.47
42761;BME280;31672;47.638;19.026;2023-04-23T20:32:54;99549.53;;;11.93;54.62
42761;BME280;31672;47.638;19.026;2023-04-23T20:37:57;99544.75;;;11.82;56.04
42761;BME280;31672;47.638;19.026;2023-04-23T20:43:00;99542.38;;;11.72;56.39
42761;BME280;31672;47.638;19.026;2023-04-23T20:48:03;99539.25;;;11.69;56.49
42761;BME280;31672;47.638;19.026;2023-04-23T20:53:06;99541.69;;;11.64;56.96
42761;BME280;31672;47.638;19.026;2023-04-23T20:58:09;99545.34;;;11.63;56.71
42761;BME280;31672;47.638;19.026;2023-04-23T21:03:12;99537.94;;;11.58;56.65
42761;BME280;31672;47.638;19.026;2023-04-23T21:08:15;99539.41;;;11.61;57.13
42761;BME280;31672;47.638;19.026;2023-04-23T21:13:19;99532.63;;;11.58;57.56
42761;BME280;31672;47.638;19.026;2023-04-23T21:18:22;99535.44;;;11.57;57.77
42761;BME280;31672;47.638;19.026;2023-04-23T21:23:25;99519.25;;;11.51;58.25
42761;BME280;31672;47.638;19.026;2023-04-23T21:28:28;99514.75;;;11.52;58.69
42761;BME280;31672;47.638;19.026;2023-04-23T21:33:32;99511.28;;;11.51;58.89
42761;BME280;31672;47.638;19.026;2023-04-23T21:38:35;99509.25;;;11.53;58.67
42761;BME280;31672;47.638;19.026;2023-04-23T21:43:37;99503.53;;;11.57;58.45
42761;BME280;31672;47.638;19.026;2023-04-23T21:48:41;99496.19;;;11.59;58.86
42761;BME280;31672;47.638;19.026;2023-04-23T21:53:44;99497.00;;;11.59;59.21
42761;BME280;31672;47.638;19.026;2023-04-23T21:58:47;99501.50;;;11.59;59.48
42761;BME280;31672;47.638;19.026;2023-04-23T22:03:50;99495.38;;;11.58;59.75
42761;BME280;31672;47.638;19.026;2023-04-23T22:08:54;99490.88;;;11.59;59.92
42761;BME280;31672;47.638;19.026;2023-04-23T22:13:58;99478.19;;;11.61;59.47
42761;BME280;31672;47.638;19.026;2023-04-23T22:19:02;99476.53;;;11.60;60.51
42761;BME280;31672;47.638;19.026;2023-04-23T22:24:06;99477.31;;;11.53;61.33
42761;BME280;31672;47.638;19.026;2023-04-23T22:29:09;99472.97;;;11.46;61.14
42761;BME280;31672;47.638;19.026;2023-04-23T22:34:12;99468.81;;;11.43;62.22
42761;BME280;31672;47.638;19.026;2023-04-23T22:39:15;99472.25;;;11.37;61.97
42761;BME280;31672;47.638;19.026;2023-04-23T22:44:19;99457.66;;;11.33;61.95
42761;BME280;31672;47.638;19.026;2023-04-23T22:49:22;99453.75;;;11.29;62.26
42761;BME280;31672;47.638;19.026;2023-04-23T22:54:25;99449.22;;;11.23;62.54
42761;BME280;31672;47.638;19.026;2023-04-23T22:59:29;99443.84;;;11.16;62.69
42761;BME280;31672;47.638;19.026;2023-04-23T23:04:33;99440.91;;;11.11;62.23
42761;BME280;31672;47.638;19.026;2023-04-23T23:09:39;99432.69;;;11.06;61.48
42761;BME280;31672;47.638;19.026;2023-04-23T23:14:43;99434.25;;;11.01;62.08
42761;BME280;31672;47.638;19.026;2023-04-23T23:19:46;99424.94;;;10.90;62.65
42761;BME280;31672;47.638;19.026;2023-04-23T23:24:49;99419.22;;;10.71;63.33
42761;BME280;31672;47.638;19.026;2023-04-23T23:29:52;99407.25;;;10.61;63.54
42761;BME280;31672;47.638;19.026;2023-04-23T23:34:55;99411.31;;;10.57;63.37
42761;BME280;31672;47.638;19.026;2023-04-23T23:39:58;99407.16;;;10.54;64.00
42761;BME280;31672;47.638;19.026;2023-04-23T23:45:02;99395.72;;;10.54;63.70
42761;BME280;31672;47.638;19.026;2023-04-23T23:50:06;99391.44;;;10.53;63.90
42761;BME280;31672;47.638;19.026;2023-04-23T23:55:10;99388.41;;;10.56;64.09
